sensor_id;sensor_type;location;lat;lon;timestamp;temperature;humidity
16523;DHT22;19889;52.546;13.348;2022-12-29T00:01:28;8.80;99.90
16523;DHT22;19889;52.546;13.348;2022-12-29T00:03:57;9.40;99.90
16523;DHT22;19889;52.546;13.348;2022-12-29T00:06:25;9.30;99.90
16523;DHT22;19889;52.546;13.348;2022-12-29T00:08:52;9.20;99.90
16523;DHT22;19889;52.546;13.348;2022-12-29T00:11:20;9.40;99.90
16523;DHT22;19889;52.546;13.348;2022-12-29T00:13:57;9.40;99.90
16523;DHT22;19889;52.546;13.348;2022-12-29T00:16:42;9.40;99.90
16523;DHT22;19889;52.546;13.348;2022-12-29T00:19:10;9.40;99.90
16523;DHT22;19889;52.546;13.348;2022-12-29T00:21:58;9.40;99.90
16523;DHT22;19889;52.546;13.348;2022-12-29T00:24:43;9.40;99.90
16523;DHT22;19889;52.546;13.348;2022-12-29T00:27:30;9.40;99.90
16523;DHT22;19889;52.546;13.348;2022-12-29T00:30:18;9.40;99.90
16523;DHT22;19889;52.546;13.348;2022-12-29T00:33:09;9.40;99.90
16523;DHT22;19889;52.546;13.348;2022-12-29T00:35:57;9.40;99.90
16523;DHT22;19889;52.546;13.348;2022-12-29T00:38:29;9.50;99.90
16523;DHT22;19889;52.546;13.348;2022-12-29T00:41:15;9.60;99.90
16523;DHT22;19889;52.546;13.348;2022-12-29T00:44:00;9.50;99.90
16523;DHT22;19889;52.546;13.348;2022-12-29T00:46:38;9.40;99.90
16523;DHT22;19889;52.546;13.348;2022-12-29T00:49:07;9.50;99.90
16523;DHT22;19889;52.546;13.348;2022-12-29T00:51:52;9.00;99.90
16523;DHT22;19889;52.546;13.348;2022-12-29T00:54:19;9.40;99.90
16523;DHT22;19889;52.546;13.348;2022-12-29T00:56:47;9.40;99.90
16523;DHT22;19889;52.546;13.348;2022-12-29T00:59:16;9.50;99.90
16523;DHT22;19889;52.546;13.348;2022-12-29T01:01:46;9.50;99.90
16523;DHT22;19889;52.546;13.348;2022-12-29T01:04:13;9.50;99.90
16523;DHT22;19889;52.546;13.348;2022-12-29T01:06:40;9.40;99.90
16523;DHT22;19889;52.546;13.348;2022-12-29T01:09:08;9.10;99.90
16523;DHT22;19889;52.546;13.348;2022-12-29T01:11:53;9.50;99.90
16523;DHT22;19889;52.546;13.348;2022-12-29T01:14:20;9.40;99.90
16523;DHT22;19889;52.546;13.348;2022-12-29T01:16:49;9.40;99.90
16523;DHT22;19889;52.546;13.348;2022-12-29T01:19:17;9.50;99.90
16523;DHT22;19889;52.546;13.348;2022-12-29T01:21:44;9.50;99.90
16523;DHT22;19889;52.546;13.348;2022-12-29T01:24:12;9.50;99.90
16523;DHT22;19889;52.546;13.348;2022-12-29T01:26:39;9.50;99.90
16523;DHT22;19889;52.546;13.348;2022-12-29T01:29:06;9.50;99.90
16523;DHT22;19889;52.546;13.348;2022-12-29T01:31:33;9.50;99.90
16523;DHT22;19889;52.546;13.348;2022-12-29T01:34:01;9.50;99.90
16523;DHT22;19889;52.546;13.348;2022-12-29T01:36:28;9.50;99.90
16523;DHT22;19889;52.546;13.348;2022-12-29T01:38:56;9.50;99.90
16523;DHT22;19889;52.546;13.348;2022-12-29T01:41:23;9.60;99.90
16523;DHT22;19889;52.546;13.348;2022-12-29T01:43:52;9.50;99.90
16523;DHT22;19889;52.546;13.348;2022-12-29T01:46:23;9.50;99.90
16523;DHT22;19889;52.546;13.348;2022-12-29T01:48:55;9.50;99.90
16523;DHT22;19889;52.546;13.348;2022-12-29T01:51:29;9.50;99.90
16523;DHT22;19889;52.546;13.348;2022-12-29T01:54:02;9.50;99.90
16523;DHT22;19889;52.546;13.348;2022-12-29T01:56:30;9.40;99.90
16523;DHT22;19889;52.546;13.348;2022-12-29T01:59:02;9.40;99.90
16523;DHT22;19889;52.546;13.348;2022-12-29T02:01:32;9.50;99.90
16523;DHT22;19889;52.546;13.348;2022-12-29T02:04:00;9.60;99.90
16523;DHT22;19889;52.546;13.348;2022-12-29T02:06:41;9.40;99.90
16523;DHT22;19889;52.546;13.348;2022-12-29T02:09:09;9.50;99.90
16523;DHT22;19889;52.546;13.348;2022-12-29T02:11:37;9.60;99.90
16523;DHT22;19889;52.546;13.348;2022-12-29T02:14:09;9.40;99.90
16523;DHT22;19889;52.546;13.348;2022-12-29T02:16:49;9.40;99.90
16523;DHT22;19889;52.546;13.348;2022-12-29T02:19:52;9.40;99.90
16523;DHT22;19889;52.546;13.348;2022-12-29T02:22:27;9.50;99.90
16523;DHT22;19889;52.546;13.348;2022-12-29T02:25:45;9.30;99.90
16523;DHT22;19889;52.546;13.348;2022-12-29T02:28:47;9.50;99.90
16523;DHT22;19889;52.546;13.348;2022-12-29T02:31:27;9.50;99.90
16523;DHT22;19889;52.546;13.348;2022-12-29T02:34:05;9.50;99.90
16523;DHT22;19889;52.546;13.348;2022-12-29T02:36:40;9.50;99.90
16523;DHT22;19889;52.546;13.348;2022-12-29T02:39:15;9.50;99.90
16523;DHT22;19889;52.546;13.348;2022-12-29T02:41:54;9.60;99.90
16523;DHT22;19889;52.546;13.348;2022-12-29T02:44:28;9.60;99.90
16523;DHT22;19889;52.546;13.348;2022-12-29T02:47:07;9.60;99.90
16523;DHT22;19889;52.546;13.348;2022-12-29T02:49:42;9.70;99.90
16523;DHT22;19889;52.546;13.348;2022-12-29T02:52:16;9.60;99.90
16523;DHT22;19889;52.546;13.348;2022-12-29T02:54:44;9.60;99.90
16523;DHT22;19889;52.546;13.348;2022-12-29T02:57:13;9.60;99.90
16523;DHT22;19889;52.546;13.348;2022-12-29T02:59:41;9.60;99.90
16523;DHT22;19889;52.546;13.348;2022-12-29T03:02:39;9.70;99.90
16523;DHT22;19889;52.546;13.348;2022-12-29T03:05:25;9.70;99.90
16523;DHT22;19889;52.546;13.348;2022-12-29T03:08:03;9.70;99.90
16523;DHT22;19889;52.546;13.348;2022-12-29T03:10:44;9.70;99.90
16523;DHT22;19889;52.546;13.348;2022-12-29T03:13:23;9.70;99.90
16523;DHT22;19889;52.546;13.348;2022-12-29T03:16:18;9.70;99.90
16523;DHT22;19889;52.546;13.348;2022-12-29T03:18:54;9.80;99.90
16523;DHT22;19889;52.546;13.348;2022-12-29T03:21:32;9.80;99.90
16523;DHT22;19889;52.546;13.348;2022-12-29T03:24:22;9.80;99.90
16523;DHT22;19889;52.546;13.348;2022-12-29T03:26:52;10.00;99.90
16523;DHT22;19889;52.546;13.348;2022-12-29T03:29:21;9.90;99.90
16523;DHT22;19889;52.546;13.348;2022-12-29T03:31:49;9.90;99.90
16523;DHT22;19889;52.546;13.348;2022-12-29T03:34:21;10.00;99.90
16523;DHT22;19889;52.546;13.348;2022-12-29T03:36:52;10.00;99.90
16523;DHT22;19889;52.546;13.348;2022-12-29T03:39:21;10.00;99.90
16523;DHT22;19889;52.546;13.348;2022-12-29T03:41:54;10.00;99.90
16523;DHT22;19889;52.546;13.348;2022-12-29T03:44:32;10.00;99.90
16523;DHT22;19889;52.546;13.348;2022-12-29T03:47:00;10.00;99.90
16523;DHT22;19889;52.546;13.348;2022-12-29T03:49:28;10.70;99.90
16523;DHT22;19889;52.546;13.348;2022-12-29T03:51:56;10.10;99.90
16523;DHT22;19889;52.546;13.348;2022-12-29T03:54:23;10.10;99.90
16523;DHT22;19889;52.546;13.348;2022-12-29T03:56:51;10.10;99.90
16523;DHT22;19889;52.546;13.348;2022-12-29T03:59:28;10.00;99.90
16523;DHT22;19889;52.546;13.348;2022-12-29T04:01:55;10.10;99.90
16523;DHT22;19889;52.546;13.348;2022-12-29T04:04:22;10.20;99.90
16523;DHT22;19889;52.546;13.348;2022-12-29T04:06:51;10.20;99.90
16523;DHT22;19889;52.546;13.348;2022-12-29T04:09:18;10.40;99.90
16523;DHT22;19889;52.546;13.348;2022-12-29T04:11:47;10.20;99.90
16523;DHT22;19889;52.546;13.348;2022-12-29T04:14:15;10.30;99.90
16523;DHT22;19889;52.546;13.348;2022-12-29T04:16:42;10.30;99.90
16523;DHT22;19889;52.546;13.348;2022-12-29T04:19:09;10.30;99.90
16523;DHT22;19889;52.546;13.348;2022-12-29T04:21:36;10.10;99.90
16523;DHT22;19889;52.546;13.348;2022-12-29T04:24:06;10.30;99.90
16523;DHT22;19889;52.546;13.348;2022-12-29T04:26:38;10.30;99.90
16523;DHT22;19889;52.546;13.348;2022-12-29T04:29:19;10.40;99.90
16523;DHT22;19889;52.546;13.348;2022-12-29T04:32:02;10.40;99.90
16523;DHT22;19889;52.546;13.348;2022-12-29T04:34:32;10.40;99.90
16523;DHT22;19889;52.546;13.348;2022-12-29T04:36:59;10.40;99.90
16523;DHT22;19889;52.546;13.348;2022-12-29T04:39:28;10.40;99.90
16523;DHT22;19889;52.546;13.348;2022-12-29T04:41:55;10.40;99.90
16523;DHT22;19889;52.546;13.348;2022-12-29T04:44:22;10.50;99.90
16523;DHT22;19889;52.546;13.348;2022-12-29T04:46:49;10.40;99.90
16523;DHT22;19889;52.546;13.348;2022-12-29T04:49:33;10.50;99.90
16523;DHT22;19889;52.546;13.348;2022-12-29T04:52:20;10.60;99.90
16523;DHT22;19889;52.546;13.348;2022-12-29T04:54:48;10.50;99.90
16523;DHT22;19889;52.546;13.348;2022-12-29T04:57:18;10.50;99.90
16523;DHT22;19889;52.546;13.348;2022-12-29T04:59:50;10.40;99.90
16523;DHT22;19889;52.546;13.348;2022-12-29T05:02:17;10.50;99.90
16523;DHT22;19889;52.546;13.348;2022-12-29T05:04:45;10.50;99.90
16523;DHT22;19889;52.546;13.348;2022-12-29T05:07:13;10.50;99.90
16523;DHT22;19889;52.546;13.348;2022-12-29T05:09:40;10.50;99.90
16523;DHT22;19889;52.546;13.348;2022-12-29T05:12:08;10.50;99.90
16523;DHT22;19889;52.546;13.348;2022-12-29T05:14:40;10.50;99.90
16523;DHT22;19889;52.546;13.348;2022-12-29T05:17:07;10.50;99.90
16523;DHT22;19889;52.546;13.348;2022-12-29T05:19:35;10.50;99.90
16523;DHT22;19889;52.546;13.348;2022-12-29T05:22:02;10.50;99.90
16523;DHT22;19889;52.546;13.348;2022-12-29T05:24:31;10.50;99.90
16523;DHT22;19889;52.546;13.348;2022-12-29T05:26:58;10.50;99.90
16523;DHT22;19889;52.546;13.348;2022-12-29T05:29:45;10.50;99.90
16523;DHT22;19889;52.546;13.348;2022-12-29T05:32:12;10.60;99.90
16523;DHT22;19889;52.546;13.348;2022-12-29T05:34:39;10.60;99.90
16523;DHT22;19889;52.546;13.348;2022-12-29T05:37:06;10.60;99.90
16523;DHT22;19889;52.546;13.348;2022-12-29T05:39:33;10.60;99.90
16523;DHT22;19889;52.546;13.348;2022-12-29T05:42:03;10.70;99.90
16523;DHT22;19889;52.546;13.348;2022-12-29T05:44:59;10.60;99.90
16523;DHT22;19889;52.546;13.348;2022-12-29T05:47:41;10.70;99.90
16523;DHT22;19889;52.546;13.348;2022-12-29T05:50:34;10.70;99.90
16523;DHT22;19889;52.546;13.348;2022-12-29T05:53:15;10.70;99.90
16523;DHT22;19889;52.546;13.348;2022-12-29T05:55:43;10.90;99.90
16523;DHT22;19889;52.546;13.348;2022-12-29T05:58:11;10.70;99.90
16523;DHT22;19889;52.546;13.348;2022-12-29T06:00:39;10.70;99.90
16523;DHT22;19889;52.546;13.348;2022-12-29T06:03:08;10.70;99.90
16523;DHT22;19889;52.546;13.348;2022-12-29T06:05:35;10.80;99.90
16523;DHT22;19889;52.546;13.348;2022-12-29T06:08:02;10.80;99.90
16523;DHT22;19889;52.546;13.348;2022-12-29T06:10:29;10.80;99.90
16523;DHT22;19889;52.546;13.348;2022-12-29T06:13:01;10.80;99.90
16523;DHT22;19889;52.546;13.348;2022-12-29T06:15:30;10.90;99.90
16523;DHT22;19889;52.546;13.348;2022-12-29T06:17:58;10.90;99.90
16523;DHT22;19889;52.546;13.348;2022-12-29T06:20:26;10.90;99.90
16523;DHT22;19889;52.546;13.348;2022-12-29T06:22:53;10.90;99.90
16523;DHT22;19889;52.546;13.348;2022-12-29T06:25:20;11.00;99.90
16523;DHT22;19889;52.546;13.348;2022-12-29T06:27:47;11.00;99.90
16523;DHT22;19889;52.546;13.348;2022-12-29T06:30:14;11.00;99.90
16523;DHT22;19889;52.546;13.348;2022-12-29T06:32:43;11.00;99.90
16523;DHT22;19889;52.546;13.348;2022-12-29T06:35:13;11.00;99.90
16523;DHT22;19889;52.546;13.348;2022-12-29T06:37:46;11.10;99.90
16523;DHT22;19889;52.546;13.348;2022-12-29T06:40:13;11.10;99.90
16523;DHT22;19889;52.546;13.348;2022-12-29T06:42:59;11.10;99.90
16523;DHT22;19889;52.546;13.348;2022-12-29T06:45:38;11.10;99.90
16523;DHT22;19889;52.546;13.348;2022-12-29T06:48:06;11.20;99.90
16523;DHT22;19889;52.546;13.348;2022-12-29T06:50:35;11.10;99.90
16523;DHT22;19889;52.546;13.348;2022-12-29T06:53:02;11.30;99.90
16523;DHT22;19889;52.546;13.348;2022-12-29T06:55:29;11.20;99.90
16523;DHT22;19889;52.546;13.348;2022-12-29T06:57:56;11.20;99.90
16523;DHT22;19889;52.546;13.348;2022-12-29T07:00:23;11.20;99.90
16523;DHT22;19889;52.546;13.348;2022-12-29T07:02:51;11.20;99.90
16523;DHT22;19889;52.546;13.348;2022-12-29T07:05:18;11.20;99.90
16523;DHT22;19889;52.546;13.348;2022-12-29T07:07:46;11.30;99.90
16523;DHT22;19889;52.546;13.348;2022-12-29T07:10:13;11.20;99.90
16523;DHT22;19889;52.546;13.348;2022-12-29T07:12:40;11.20;99.90
16523;DHT22;19889;52.546;13.348;2022-12-29T07:15:08;11.20;99.90
16523;DHT22;19889;52.546;13.348;2022-12-29T07:17:35;11.20;99.90
16523;DHT22;19889;52.546;13.348;2022-12-29T07:20:02;11.20;99.90
16523;DHT22;19889;52.546;13.348;2022-12-29T07:22:29;11.30;99.90
16523;DHT22;19889;52.546;13.348;2022-12-29T07:24:57;11.20;99.90
16523;DHT22;19889;52.546;13.348;2022-12-29T07:27:24;11.20;99.90
16523;DHT22;19889;52.546;13.348;2022-12-29T07:29:51;11.20;99.90
16523;DHT22;19889;52.546;13.348;2022-12-29T07:32:23;11.50;99.90
16523;DHT22;19889;52.546;13.348;2022-12-29T07:34:50;11.20;99.90
16523;DHT22;19889;52.546;13.348;2022-12-29T07:37:17;11.30;99.90
16523;DHT22;19889;52.546;13.348;2022-12-29T07:39:44;11.40;99.90
16523;DHT22;19889;52.546;13.348;2022-12-29T07:42:12;11.60;99.90
16523;DHT22;19889;52.546;13.348;2022-12-29T07:44:46;11.80;99.90
16523;DHT22;19889;52.546;13.348;2022-12-29T07:47:29;11.70;99.90
16523;DHT22;19889;52.546;13.348;2022-12-29T07:49:56;12.30;99.90
16523;DHT22;19889;52.546;13.348;2022-12-29T07:52:23;12.40;99.90
16523;DHT22;19889;52.546;13.348;2022-12-29T07:54:50;12.40;99.90
16523;DHT22;19889;52.546;13.348;2022-12-29T07:57:18;11.90;99.90
16523;DHT22;19889;52.546;13.348;2022-12-29T07:59:45;11.80;99.90
16523;DHT22;19889;52.546;13.348;2022-12-29T08:02:12;11.70;99.90
16523;DHT22;19889;52.546;13.348;2022-12-29T08:04:39;12.30;99.90
16523;DHT22;19889;52.546;13.348;2022-12-29T08:07:06;11.70;99.90
16523;DHT22;19889;52.546;13.348;2022-12-29T08:09:35;11.60;99.90
16523;DHT22;19889;52.546;13.348;2022-12-29T08:12:02;12.20;99.90
16523;DHT22;19889;52.546;13.348;2022-12-29T08:14:31;11.50;99.90
16523;DHT22;19889;52.546;13.348;2022-12-29T08:16:58;11.70;99.90
16523;DHT22;19889;52.546;13.348;2022-12-29T08:19:24;11.50;99.90
16523;DHT22;19889;52.546;13.348;2022-12-29T08:21:53;11.40;99.90
16523;DHT22;19889;52.546;13.348;2022-12-29T08:24:20;11.50;99.90
16523;DHT22;19889;52.546;13.348;2022-12-29T08:26:47;11.50;99.90
16523;DHT22;19889;52.546;13.348;2022-12-29T08:29:14;11.60;99.90
16523;DHT22;19889;52.546;13.348;2022-12-29T08:31:43;11.70;99.90
16523;DHT22;19889;52.546;13.348;2022-12-29T08:34:10;11.90;99.90
16523;DHT22;19889;52.546;13.348;2022-12-29T08:36:37;11.80;99.90
16523;DHT22;19889;52.546;13.348;2022-12-29T08:39:04;11.60;99.90
16523;DHT22;19889;52.546;13.348;2022-12-29T08:41:31;11.60;99.90
16523;DHT22;19889;52.546;13.348;2022-12-29T08:43:58;11.50;99.90
16523;DHT22;19889;52.546;13.348;2022-12-29T08:46:25;11.50;99.90
16523;DHT22;19889;52.546;13.348;2022-12-29T08:48:53;11.40;99.90
16523;DHT22;19889;52.546;13.348;2022-12-29T08:51:20;11.30;99.90
16523;DHT22;19889;52.546;13.348;2022-12-29T08:53:47;11.50;99.90
16523;DHT22;19889;52.546;13.348;2022-12-29T08:56:14;11.50;99.90
16523;DHT22;19889;52.546;13.348;2022-12-29T08:58:47;11.50;99.90
16523;DHT22;19889;52.546;13.348;2022-12-29T09:01:16;11.50;99.90
16523;DHT22;19889;52.546;13.348;2022-12-29T09:03:43;11.50;99.90
16523;DHT22;19889;52.546;13.348;2022-12-29T09:06:12;11.50;99.90
16523;DHT22;19889;52.546;13.348;2022-12-29T09:08:40;11.60;99.90
16523;DHT22;19889;52.546;13.348;2022-12-29T09:11:08;11.50;99.90
16523;DHT22;19889;52.546;13.348;2022-12-29T09:13:35;11.60;99.90
16523;DHT22;19889;52.546;13.348;2022-12-29T09:16:03;11.60;99.90
16523;DHT22;19889;52.546;13.348;2022-12-29T09:18:30;11.60;99.90
16523;DHT22;19889;52.546;13.348;2022-12-29T09:20:58;11.60;99.90
16523;DHT22;19889;52.546;13.348;2022-12-29T09:23:27;11.60;99.90
16523;DHT22;19889;52.546;13.348;2022-12-29T09:25:54;12.10;99.90
16523;DHT22;19889;52.546;13.348;2022-12-29T09:28:21;11.60;99.90
16523;DHT22;19889;52.546;13.348;2022-12-29T09:30:49;11.70;99.90
16523;DHT22;19889;52.546;13.348;2022-12-29T09:33:17;11.80;99.90
16523;DHT22;19889;52.546;13.348;2022-12-29T09:35:44;11.90;99.90
16523;DHT22;19889;52.546;13.348;2022-12-29T09:38:12;11.70;99.90
16523;DHT22;19889;52.546;13.348;2022-12-29T09:40:44;11.70;99.90
16523;DHT22;19889;52.546;13.348;2022-12-29T09:46:16;11.70;99.90
16523;DHT22;19889;52.546;13.348;2022-12-29T09:48:48;12.00;99.90
16523;DHT22;19889;52.546;13.348;2022-12-29T09:51:21;11.80;99.90
16523;DHT22;19889;52.546;13.348;2022-12-29T09:53:53;11.70;99.90
16523;DHT22;19889;52.546;13.348;2022-12-29T09:56:25;11.90;99.90
16523;DHT22;19889;52.546;13.348;2022-12-29T09:58:57;11.80;99.90
16523;DHT22;19889;52.546;13.348;2022-12-29T10:01:30;12.00;99.90
16523;DHT22;19889;52.546;13.348;2022-12-29T10:03:59;12.40;99.90
16523;DHT22;19889;52.546;13.348;2022-12-29T10:06:33;11.90;99.90
16523;DHT22;19889;52.546;13.348;2022-12-29T10:09:06;12.20;99.90
16523;DHT22;19889;52.546;13.348;2022-12-29T10:11:52;12.40;99.90
16523;DHT22;19889;52.546;13.348;2022-12-29T10:14:33;12.40;99.90
16523;DHT22;19889;52.546;13.348;2022-12-29T10:17:17;12.00;99.90
16523;DHT22;19889;52.546;13.348;2022-12-29T10:19:58;12.00;99.90
16523;DHT22;19889;52.546;13.348;2022-12-29T10:22:43;12.00;99.90
16523;DHT22;19889;52.546;13.348;2022-12-29T10:25:18;12.10;99.90
16523;DHT22;19889;52.546;13.348;2022-12-29T10:27:49;12.10;99.90
16523;DHT22;19889;52.546;13.348;2022-12-29T10:30:17;12.10;99.90
16523;DHT22;19889;52.546;13.348;2022-12-29T10:32:47;12.10;99.90
16523;DHT22;19889;52.546;13.348;2022-12-29T10:35:18;12.20;99.90
16523;DHT22;19889;52.546;13.348;2022-12-29T10:37:49;12.30;99.90
16523;DHT22;19889;52.546;13.348;2022-12-29T10:40:25;12.40;99.90
16523;DHT22;19889;52.546;13.348;2022-12-29T10:42:57;12.50;99.90
16523;DHT22;19889;52.546;13.348;2022-12-29T10:45:27;12.50;99.90
16523;DHT22;19889;52.546;13.348;2022-12-29T10:48:00;12.60;99.90
16523;DHT22;19889;52.546;13.348;2022-12-29T10:50:28;12.70;99.90
16523;DHT22;19889;52.546;13.348;2022-12-29T10:52:58;12.70;99.90
16523;DHT22;19889;52.546;13.348;2022-12-29T10:55:30;12.80;99.90
16523;DHT22;19889;52.546;13.348;2022-12-29T10:58:04;12.80;99.90
16523;DHT22;19889;52.546;13.348;2022-12-29T11:00:32;12.80;99.90
16523;DHT22;19889;52.546;13.348;2022-12-29T11:06:07;12.90;99.90
16523;DHT22;19889;52.546;13.348;2022-12-29T11:08:37;12.90;99.90
16523;DHT22;19889;52.546;13.348;2022-12-29T11:11:06;12.90;99.90
16523;DHT22;19889;52.546;13.348;2022-12-29T11:13:46;12.90;99.90
16523;DHT22;19889;52.546;13.348;2022-12-29T11:16:14;12.90;99.90
16523;DHT22;19889;52.546;13.348;2022-12-29T11:18:46;13.00;99.90
16523;DHT22;19889;52.546;13.348;2022-12-29T11:21:27;12.90;99.90
16523;DHT22;19889;52.546;13.348;2022-12-29T11:23:56;13.20;99.90
16523;DHT22;19889;52.546;13.348;2022-12-29T11:26:24;13.10;99.90
16523;DHT22;19889;52.546;13.348;2022-12-29T11:29:20;13.00;99.90
16523;DHT22;19889;52.546;13.348;2022-12-29T11:31:50;13.00;99.90
16523;DHT22;19889;52.546;13.348;2022-12-29T11:34:18;12.90;99.90
16523;DHT22;19889;52.546;13.348;2022-12-29T11:36:46;13.00;99.90
16523;DHT22;19889;52.546;13.348;2022-12-29T11:39:29;13.00;99.90
16523;DHT22;19889;52.546;13.348;2022-12-29T11:41:57;13.00;99.90
16523;DHT22;19889;52.546;13.348;2022-12-29T11:44:26;12.90;99.90
16523;DHT22;19889;52.546;13.348;2022-12-29T11:46:54;13.00;99.90
16523;DHT22;19889;52.546;13.348;2022-12-29T11:49:24;12.90;99.90
16523;DHT22;19889;52.546;13.348;2022-12-29T11:51:52;13.00;99.90
16523;DHT22;19889;52.546;13.348;2022-12-29T11:54:25;13.30;99.90
16523;DHT22;19889;52.546;13.348;2022-12-29T11:56:53;13.20;99.90
16523;DHT22;19889;52.546;13.348;2022-12-29T11:59:39;12.90;99.90
16523;DHT22;19889;52.546;13.348;2022-12-29T12:02:32;12.90;99.90
16523;DHT22;19889;52.546;13.348;2022-12-29T12:05:08;12.80;99.90
16523;DHT22;19889;52.546;13.348;2022-12-29T12:07:41;12.80;99.90
16523;DHT22;19889;52.546;13.348;2022-12-29T12:10:18;12.80;99.90
16523;DHT22;19889;52.546;13.348;2022-12-29T12:12:51;12.70;99.90
16523;DHT22;19889;52.546;13.348;2022-12-29T12:15:24;12.70;99.90
16523;DHT22;19889;52.546;13.348;2022-12-29T12:18:00;12.60;99.90
16523;DHT22;19889;52.546;13.348;2022-12-29T12:20:41;12.50;99.90
16523;DHT22;19889;52.546;13.348;2022-12-29T12:23:18;12.50;99.90
16523;DHT22;19889;52.546;13.348;2022-12-29T12:25:54;12.70;99.90
16523;DHT22;19889;52.546;13.348;2022-12-29T12:28:26;12.30;99.90
16523;DHT22;19889;52.546;13.348;2022-12-29T12:30:58;12.30;99.90
16523;DHT22;19889;52.546;13.348;2022-12-29T12:33:29;12.30;99.90
16523;DHT22;19889;52.546;13.348;2022-12-29T12:36:14;12.20;99.90
16523;DHT22;19889;52.546;13.348;2022-12-29T12:38:54;12.30;99.90
16523;DHT22;19889;52.546;13.348;2022-12-29T12:41:32;12.20;99.90
16523;DHT22;19889;52.546;13.348;2022-12-29T12:44:09;12.20;99.90
16523;DHT22;19889;52.546;13.348;2022-12-29T12:50:06;12.20;99.90
16523;DHT22;19889;52.546;13.348;2022-12-29T12:53:00;12.20;99.90
16523;DHT22;19889;52.546;13.348;2022-12-29T12:55:50;12.10;99.90
16523;DHT22;19889;52.546;13.348;2022-12-29T12:58:27;12.10;99.90
16523;DHT22;19889;52.546;13.348;2022-12-29T13:01:06;12.20;99.90
16523;DHT22;19889;52.546;13.348;2022-12-29T13:03:47;12.20;99.90
16523;DHT22;19889;52.546;13.348;2022-12-29T13:06:23;12.10;99.90
16523;DHT22;19889;52.546;13.348;2022-12-29T13:09:13;12.10;99.90
16523;DHT22;19889;52.546;13.348;2022-12-29T13:11:55;12.10;99.90
16523;DHT22;19889;52.546;13.348;2022-12-29T13:14:29;12.10;99.90
16523;DHT22;19889;52.546;13.348;2022-12-29T13:17:05;12.10;99.90
16523;DHT22;19889;52.546;13.348;2022-12-29T13:19:40;12.10;99.90
16523;DHT22;19889;52.546;13.348;2022-12-29T13:22:11;12.10;99.90
16523;DHT22;19889;52.546;13.348;2022-12-29T13:24:51;12.10;99.90
16523;DHT22;19889;52.546;13.348;2022-12-29T13:27:27;12.10;99.90
16523;DHT22;19889;52.546;13.348;2022-12-29T13:30:02;12.20;99.90
16523;DHT22;19889;52.546;13.348;2022-12-29T13:32:42;12.10;99.90
16523;DHT22;19889;52.546;13.348;2022-12-29T13:38:03;12.10;99.90
16523;DHT22;19889;52.546;13.348;2022-12-29T13:40:36;12.10;99.90
16523;DHT22;19889;52.546;13.348;2022-12-29T13:43:05;12.10;99.90
16523;DHT22;19889;52.546;13.348;2022-12-29T13:45:34;12.40;99.90
16523;DHT22;19889;52.546;13.348;2022-12-29T13:48:05;12.10;99.90
16523;DHT22;19889;52.546;13.348;2022-12-29T13:50:36;12.10;99.90
16523;DHT22;19889;52.546;13.348;2022-12-29T13:53:11;12.10;99.90
16523;DHT22;19889;52.546;13.348;2022-12-29T13:55:48;12.30;99.90
16523;DHT22;19889;52.546;13.348;2022-12-29T13:58:23;12.10;99.90
16523;DHT22;19889;52.546;13.348;2022-12-29T14:00:56;12.00;99.90
16523;DHT22;19889;52.546;13.348;2022-12-29T14:03:46;12.10;99.90
16523;DHT22;19889;52.546;13.348;2022-12-29T14:06:20;12.10;99.90
16523;DHT22;19889;52.546;13.348;2022-12-29T14:08:48;12.10;99.90
16523;DHT22;19889;52.546;13.348;2022-12-29T14:11:18;12.20;99.90
16523;DHT22;19889;52.546;13.348;2022-12-29T14:13:47;12.20;99.90
16523;DHT22;19889;52.546;13.348;2022-12-29T14:16:29;12.20;99.90
16523;DHT22;19889;52.546;13.348;2022-12-29T14:19:04;12.50;99.90
16523;DHT22;19889;52.546;13.348;2022-12-29T14:21:33;12.20;99.90
16523;DHT22;19889;52.546;13.348;2022-12-29T14:24:41;12.10;99.90
16523;DHT22;19889;52.546;13.348;2022-12-29T14:27:43;12.10;99.90
16523;DHT22;19889;52.546;13.348;2022-12-29T14:33:18;12.20;99.90
16523;DHT22;19889;52.546;13.348;2022-12-29T14:35:49;12.20;99.90
16523;DHT22;19889;52.546;13.348;2022-12-29T14:38:27;12.20;99.90
16523;DHT22;19889;52.546;13.348;2022-12-29T14:44:02;12.20;99.90
16523;DHT22;19889;52.546;13.348;2022-12-29T14:46:47;12.30;99.90
16523;DHT22;19889;52.546;13.348;2022-12-29T14:49:18;12.20;99.90
16523;DHT22;19889;52.546;13.348;2022-12-29T14:51:46;12.20;99.90
16523;DHT22;19889;52.546;13.348;2022-12-29T14:54:50;12.20;99.90
16523;DHT22;19889;52.546;13.348;2022-12-29T14:57:36;12.20;99.90
16523;DHT22;19889;52.546;13.348;2022-12-29T15:00:17;12.10;99.90
16523;DHT22;19889;52.546;13.348;2022-12-29T15:02:48;12.10;99.90
16523;DHT22;19889;52.546;13.348;2022-12-29T15:05:29;12.20;99.90
16523;DHT22;19889;52.546;13.348;2022-12-29T15:07:57;12.20;99.90
16523;DHT22;19889;52.546;13.348;2022-12-29T15:10:27;12.50;99.90
16523;DHT22;19889;52.546;13.348;2022-12-29T15:13:14;12.20;99.90
16523;DHT22;19889;52.546;13.348;2022-12-29T15:15:42;12.20;99.90
16523;DHT22;19889;52.546;13.348;2022-12-29T15:18:14;12.50;99.90
16523;DHT22;19889;52.546;13.348;2022-12-29T15:20:42;12.20;99.90
16523;DHT22;19889;52.546;13.348;2022-12-29T15:23:11;12.40;99.90
16523;DHT22;19889;52.546;13.348;2022-12-29T15:25:49;12.50;99.90
16523;DHT22;19889;52.546;13.348;2022-12-29T15:28:17;12.10;99.90
16523;DHT22;19889;52.546;13.348;2022-12-29T15:30:55;12.10;99.90
16523;DHT22;19889;52.546;13.348;2022-12-29T15:33:24;12.10;99.90
16523;DHT22;19889;52.546;13.348;2022-12-29T15:35:54;12.10;99.90
16523;DHT22;19889;52.546;13.348;2022-12-29T15:38:23;12.10;99.90
16523;DHT22;19889;52.546;13.348;2022-12-29T15:40:57;12.00;99.90
16523;DHT22;19889;52.546;13.348;2022-12-29T15:43:44;12.10;99.90
16523;DHT22;19889;52.546;13.348;2022-12-29T15:46:14;12.10;99.90
16523;DHT22;19889;52.546;13.348;2022-12-29T15:48:41;12.00;99.90
16523;DHT22;19889;52.546;13.348;2022-12-29T15:51:18;12.30;99.90
16523;DHT22;19889;52.546;13.348;2022-12-29T15:53:47;12.00;99.90
16523;DHT22;19889;52.546;13.348;2022-12-29T15:56:16;12.20;99.90
16523;DHT22;19889;52.546;13.348;2022-12-29T15:58:44;12.00;99.90
16523;DHT22;19889;52.546;13.348;2022-12-29T16:01:18;12.00;99.90
16523;DHT22;19889;52.546;13.348;2022-12-29T16:03:46;12.00;99.90
16523;DHT22;19889;52.546;13.348;2022-12-29T16:06:27;12.00;99.90
16523;DHT22;19889;52.546;13.348;2022-12-29T16:09:00;11.90;99.90
16523;DHT22;19889;52.546;13.348;2022-12-29T16:11:33;12.30;99.90
16523;DHT22;19889;52.546;13.348;2022-12-29T16:14:02;12.00;99.90